sensor_id;sensor_type;location;lat;lon;timestamp;temperature;humidity
61253;DHT22;47127;47.516;8.596;2022-07-18T00:01:28;20.00;63.30
61253;DHT22;47127;47.516;8.596;2022-07-18T00:03:54;20.00;62.90
61253;DHT22;47127;47.516;8.596;2022-07-18T00:06:20;20.10;63.00
61253;DHT22;47127;47.516;8.596;2022-07-18T00:08:45;20.10;63.60
61253;DHT22;47127;47.516;8.596;2022-07-18T00:11:11;20.10;63.60
61253;DHT22;47127;47.516;8.596;2022-07-18T00:13:37;20.10;63.40
61253;DHT22;47127;47.516;8.596;2022-07-18T00:16:03;20.10;63.20
61253;DHT22;47127;47.516;8.596;2022-07-18T00:18:29;20.20;63.30
61253;DHT22;47127;47.516;8.596;2022-07-18T00:20:54;20.10;63.30
61253;DHT22;47127;47.516;8.596;2022-07-18T00:23:20;20.00;63.70
61253;DHT22;47127;47.516;8.596;2022-07-18T00:25:46;19.90;64.00
61253;DHT22;47127;47.516;8.596;2022-07-18T00:28:12;20.00;63.90
61253;DHT22;47127;47.516;8.596;2022-07-18T00:30:38;20.00;64.10
61253;DHT22;47127;47.516;8.596;2022-07-18T00:33:04;19.90;64.30
61253;DHT22;47127;47.516;8.596;2022-07-18T00:35:29;19.90;64.40
61253;DHT22;47127;47.516;8.596;2022-07-18T00:37:55;19.90;64.30
61253;DHT22;47127;47.516;8.596;2022-07-18T00:40:21;19.90;64.20
61253;DHT22;47127;47.516;8.596;2022-07-18T00:42:46;19.90;64.60
61253;DHT22;47127;47.516;8.596;2022-07-18T00:45:12;19.90;64.30
61253;DHT22;47127;47.516;8.596;2022-07-18T00:47:38;19.90;64.30
61253;DHT22;47127;47.516;8.596;2022-07-18T00:50:04;19.70;64.70
61253;DHT22;47127;47.516;8.596;2022-07-18T00:52:31;19.60;65.70
61253;DHT22;47127;47.516;8.596;2022-07-18T00:54:56;19.60;66.00
61253;DHT22;47127;47.516;8.596;2022-07-18T00:57:22;19.50;65.50
61253;DHT22;47127;47.516;8.596;2022-07-18T00:59:49;19.40;65.80
61253;DHT22;47127;47.516;8.596;2022-07-18T01:02:33;19.40;65.90
61253;DHT22;47127;47.516;8.596;2022-07-18T01:04:59;19.50;66.00
61253;DHT22;47127;47.516;8.596;2022-07-18T01:07:26;19.20;66.20
61253;DHT22;47127;47.516;8.596;2022-07-18T01:09:51;19.10;66.70
61253;DHT22;47127;47.516;8.596;2022-07-18T01:12:17;19.00;67.30
61253;DHT22;47127;47.516;8.596;2022-07-18T01:14:43;19.00;66.90
61253;DHT22;47127;47.516;8.596;2022-07-18T01:17:16;19.10;66.70
61253;DHT22;47127;47.516;8.596;2022-07-18T01:19:42;19.10;66.60
61253;DHT22;47127;47.516;8.596;2022-07-18T01:22:08;19.10;66.60
61253;DHT22;47127;47.516;8.596;2022-07-18T01:24:34;19.20;66.30
61253;DHT22;47127;47.516;8.596;2022-07-18T01:26:59;19.30;65.90
61253;DHT22;47127;47.516;8.596;2022-07-18T01:29:25;19.30;65.70
61253;DHT22;47127;47.516;8.596;2022-07-18T01:31:51;19.30;66.10
61253;DHT22;47127;47.516;8.596;2022-07-18T01:34:21;19.30;66.00
61253;DHT22;47127;47.516;8.596;2022-07-18T01:36:47;19.10;66.60
61253;DHT22;47127;47.516;8.596;2022-07-18T01:39:13;19.00;67.30
61253;DHT22;47127;47.516;8.596;2022-07-18T01:41:38;18.90;67.50
61253;DHT22;47127;47.516;8.596;2022-07-18T01:44:04;18.90;67.40
61253;DHT22;47127;47.516;8.596;2022-07-18T01:46:30;18.80;67.90
61253;DHT22;47127;47.516;8.596;2022-07-18T01:48:55;18.80;68.00
61253;DHT22;47127;47.516;8.596;2022-07-18T01:51:21;18.80;67.60
61253;DHT22;47127;47.516;8.596;2022-07-18T01:53:55;18.80;67.50
61253;DHT22;47127;47.516;8.596;2022-07-18T01:56:23;18.70;67.90
61253;DHT22;47127;47.516;8.596;2022-07-18T01:58:49;18.70;67.90
61253;DHT22;47127;47.516;8.596;2022-07-18T02:01:16;18.70;67.80
61253;DHT22;47127;47.516;8.596;2022-07-18T02:03:41;18.80;67.90
61253;DHT22;47127;47.516;8.596;2022-07-18T02:06:07;18.80;67.70
61253;DHT22;47127;47.516;8.596;2022-07-18T02:08:33;18.70;67.60
61253;DHT22;47127;47.516;8.596;2022-07-18T02:10:58;18.70;68.10
61253;DHT22;47127;47.516;8.596;2022-07-18T02:13:24;18.60;68.10
61253;DHT22;47127;47.516;8.596;2022-07-18T02:15:49;18.60;68.30
61253;DHT22;47127;47.516;8.596;2022-07-18T02:18:15;18.60;68.30
61253;DHT22;47127;47.516;8.596;2022-07-18T02:20:41;18.60;68.00
61253;DHT22;47127;47.516;8.596;2022-07-18T02:23:07;18.70;67.90
61253;DHT22;47127;47.516;8.596;2022-07-18T02:25:34;18.80;67.90
61253;DHT22;47127;47.516;8.596;2022-07-18T02:27:59;18.60;67.60
61253;DHT22;47127;47.516;8.596;2022-07-18T02:30:25;18.60;67.80
61253;DHT22;47127;47.516;8.596;2022-07-18T02:32:50;18.60;68.10
61253;DHT22;47127;47.516;8.596;2022-07-18T02:35:16;18.40;68.90
61253;DHT22;47127;47.516;8.596;2022-07-18T02:37:42;18.30;69.60
61253;DHT22;47127;47.516;8.596;2022-07-18T02:40:09;18.20;70.00
61253;DHT22;47127;47.516;8.596;2022-07-18T02:42:35;18.30;69.90
61253;DHT22;47127;47.516;8.596;2022-07-18T02:45:01;18.30;69.70
61253;DHT22;47127;47.516;8.596;2022-07-18T02:47:27;18.40;69.30
61253;DHT22;47127;47.516;8.596;2022-07-18T02:49:52;18.50;69.10
61253;DHT22;47127;47.516;8.596;2022-07-18T02:52:18;18.60;69.10
61253;DHT22;47127;47.516;8.596;2022-07-18T02:54:43;18.70;68.90
61253;DHT22;47127;47.516;8.596;2022-07-18T02:57:09;18.70;68.70
61253;DHT22;47127;47.516;8.596;2022-07-18T02:59:35;18.60;68.60
61253;DHT22;47127;47.516;8.596;2022-07-18T03:02:01;18.50;68.70
61253;DHT22;47127;47.516;8.596;2022-07-18T03:04:27;18.40;69.30
61253;DHT22;47127;47.516;8.596;2022-07-18T03:06:53;18.20;70.00
61253;DHT22;47127;47.516;8.596;2022-07-18T03:09:18;18.20;70.00
61253;DHT22;47127;47.516;8.596;2022-07-18T03:11:44;18.30;70.10
61253;DHT22;47127;47.516;8.596;2022-07-18T03:14:10;18.30;70.00
61253;DHT22;47127;47.516;8.596;2022-07-18T03:16:35;18.20;70.10
61253;DHT22;47127;47.516;8.596;2022-07-18T03:19:01;18.10;70.30
61253;DHT22;47127;47.516;8.596;2022-07-18T03:21:27;17.80;71.10
61253;DHT22;47127;47.516;8.596;2022-07-18T03:23:53;17.70;71.00
61253;DHT22;47127;47.516;8.596;2022-07-18T03:26:19;17.60;70.90
61253;DHT22;47127;47.516;8.596;2022-07-18T03:28:44;17.60;71.50
61253;DHT22;47127;47.516;8.596;2022-07-18T03:31:10;17.60;71.00
61253;DHT22;47127;47.516;8.596;2022-07-18T03:33:37;17.50;70.90
61253;DHT22;47127;47.516;8.596;2022-07-18T03:36:03;17.60;70.70
61253;DHT22;47127;47.516;8.596;2022-07-18T03:38:28;17.50;71.40
61253;DHT22;47127;47.516;8.596;2022-07-18T03:40:54;17.60;70.80
61253;DHT22;47127;47.516;8.596;2022-07-18T03:43:19;17.80;70.30
61253;DHT22;47127;47.516;8.596;2022-07-18T03:45:46;17.90;71.20
61253;DHT22;47127;47.516;8.596;2022-07-18T03:48:12;17.90;72.30
61253;DHT22;47127;47.516;8.596;2022-07-18T03:50:38;17.90;73.30
61253;DHT22;47127;47.516;8.596;2022-07-18T03:53:04;17.90;73.20
61253;DHT22;47127;47.516;8.596;2022-07-18T03:55:30;17.90;73.70
61253;DHT22;47127;47.516;8.596;2022-07-18T03:57:55;17.90;73.70
61253;DHT22;47127;47.516;8.596;2022-07-18T04:00:21;17.90;74.00
61253;DHT22;47127;47.516;8.596;2022-07-18T04:02:48;17.90;73.80
61253;DHT22;47127;47.516;8.596;2022-07-18T04:05:14;17.90;73.50
61253;DHT22;47127;47.516;8.596;2022-07-18T04:07:41;17.90;72.90
61253;DHT22;47127;47.516;8.596;2022-07-18T04:10:08;17.70;72.50
61253;DHT22;47127;47.516;8.596;2022-07-18T04:12:35;17.50;72.70
61253;DHT22;47127;47.516;8.596;2022-07-18T04:15:09;17.40;72.80
61253;DHT22;47127;47.516;8.596;2022-07-18T04:17:35;17.30;73.30
61253;DHT22;47127;47.516;8.596;2022-07-18T04:20:00;17.30;73.60
61253;DHT22;47127;47.516;8.596;2022-07-18T04:22:26;17.40;73.60
61253;DHT22;47127;47.516;8.596;2022-07-18T04:24:51;17.60;73.70
61253;DHT22;47127;47.516;8.596;2022-07-18T04:27:17;17.80;73.30
61253;DHT22;47127;47.516;8.596;2022-07-18T04:29:42;17.80;73.20
61253;DHT22;47127;47.516;8.596;2022-07-18T04:32:08;17.80;73.20
61253;DHT22;47127;47.516;8.596;2022-07-18T04:34:34;17.90;73.20
61253;DHT22;47127;47.516;8.596;2022-07-18T04:36:59;17.80;73.20
61253;DHT22;47127;47.516;8.596;2022-07-18T04:39:25;17.90;73.30
61253;DHT22;47127;47.516;8.596;2022-07-18T04:41:50;17.90;72.90
61253;DHT22;47127;47.516;8.596;2022-07-18T04:44:16;18.00;73.00
61253;DHT22;47127;47.516;8.596;2022-07-18T04:46:41;18.10;73.50
61253;DHT22;47127;47.516;8.596;2022-07-18T04:49:07;18.20;74.10
61253;DHT22;47127;47.516;8.596;2022-07-18T04:51:32;18.20;73.40
61253;DHT22;47127;47.516;8.596;2022-07-18T04:53:58;18.30;72.70
61253;DHT22;47127;47.516;8.596;2022-07-18T04:56:24;18.20;73.70
61253;DHT22;47127;47.516;8.596;2022-07-18T04:58:50;18.10;73.70
61253;DHT22;47127;47.516;8.596;2022-07-18T05:01:15;18.10;73.00
61253;DHT22;47127;47.516;8.596;2022-07-18T05:03:41;18.10;72.70
61253;DHT22;47127;47.516;8.596;2022-07-18T05:06:07;18.20;73.20
61253;DHT22;47127;47.516;8.596;2022-07-18T05:08:32;18.20;73.40
61253;DHT22;47127;47.516;8.596;2022-07-18T05:10:58;18.20;72.90
61253;DHT22;47127;47.516;8.596;2022-07-18T05:13:23;18.30;73.20
61253;DHT22;47127;47.516;8.596;2022-07-18T05:15:49;18.30;72.70
61253;DHT22;47127;47.516;8.596;2022-07-18T05:18:15;18.40;72.70
61253;DHT22;47127;47.516;8.596;2022-07-18T05:20:40;18.50;72.20
61253;DHT22;47127;47.516;8.596;2022-07-18T05:23:06;18.60;72.00
61253;DHT22;47127;47.516;8.596;2022-07-18T05:25:31;18.70;71.70
61253;DHT22;47127;47.516;8.596;2022-07-18T05:27:57;18.80;71.30
61253;DHT22;47127;47.516;8.596;2022-07-18T05:30:23;18.90;71.10
61253;DHT22;47127;47.516;8.596;2022-07-18T05:32:50;18.90;71.10
61253;DHT22;47127;47.516;8.596;2022-07-18T05:35:17;19.10;71.20
61253;DHT22;47127;47.516;8.596;2022-07-18T05:37:43;19.10;70.90
61253;DHT22;47127;47.516;8.596;2022-07-18T05:40:11;19.20;70.90
61253;DHT22;47127;47.516;8.596;2022-07-18T05:42:37;19.20;72.10
61253;DHT22;47127;47.516;8.596;2022-07-18T05:45:04;19.30;72.80
61253;DHT22;47127;47.516;8.596;2022-07-18T05:47:30;19.40;72.60
61253;DHT22;47127;47.516;8.596;2022-07-18T05:49:56;19.50;72.20
61253;DHT22;47127;47.516;8.596;2022-07-18T05:52:21;19.50;72.30
61253;DHT22;47127;47.516;8.596;2022-07-18T05:54:47;19.60;72.40
61253;DHT22;47127;47.516;8.596;2022-07-18T05:57:12;19.60;72.60
61253;DHT22;47127;47.516;8.596;2022-07-18T05:59:38;19.70;72.70
61253;DHT22;47127;47.516;8.596;2022-07-18T06:02:04;19.90;72.40
61253;DHT22;47127;47.516;8.596;2022-07-18T06:04:29;19.90;72.00
61253;DHT22;47127;47.516;8.596;2022-07-18T06:06:55;20.00;72.10
61253;DHT22;47127;47.516;8.596;2022-07-18T06:09:20;20.00;72.10
61253;DHT22;47127;47.516;8.596;2022-07-18T06:11:46;20.10;72.00
61253;DHT22;47127;47.516;8.596;2022-07-18T06:14:11;20.20;71.70
61253;DHT22;47127;47.516;8.596;2022-07-18T06:16:37;20.30;71.80
61253;DHT22;47127;47.516;8.596;2022-07-18T06:19:03;20.40;71.50
61253;DHT22;47127;47.516;8.596;2022-07-18T06:21:29;20.50;71.50
61253;DHT22;47127;47.516;8.596;2022-07-18T06:23:55;20.60;71.10
61253;DHT22;47127;47.516;8.596;2022-07-18T06:26:21;20.60;70.80
61253;DHT22;47127;47.516;8.596;2022-07-18T06:28:47;20.70;71.00
61253;DHT22;47127;47.516;8.596;2022-07-18T06:31:13;20.80;71.20
61253;DHT22;47127;47.516;8.596;2022-07-18T06:33:42;20.90;71.10
61253;DHT22;47127;47.516;8.596;2022-07-18T06:36:08;21.00;70.80
61253;DHT22;47127;47.516;8.596;2022-07-18T06:38:34;21.20;69.80
61253;DHT22;47127;47.516;8.596;2022-07-18T06:40:59;21.30;68.90
61253;DHT22;47127;47.516;8.596;2022-07-18T06:43:25;21.40;68.80
61253;DHT22;47127;47.516;8.596;2022-07-18T06:45:50;21.40;68.70
61253;DHT22;47127;47.516;8.596;2022-07-18T06:48:18;21.50;68.90
61253;DHT22;47127;47.516;8.596;2022-07-18T06:50:44;21.50;68.60
61253;DHT22;47127;47.516;8.596;2022-07-18T06:53:10;21.70;68.10
61253;DHT22;47127;47.516;8.596;2022-07-18T06:55:36;21.80;67.50
61253;DHT22;47127;47.516;8.596;2022-07-18T06:58:01;21.80;67.20
61253;DHT22;47127;47.516;8.596;2022-07-18T07:00:27;21.90;67.20
61253;DHT22;47127;47.516;8.596;2022-07-18T07:02:53;21.90;67.20
61253;DHT22;47127;47.516;8.596;2022-07-18T07:05:20;22.10;66.80
61253;DHT22;47127;47.516;8.596;2022-07-18T07:07:46;22.20;66.30
61253;DHT22;47127;47.516;8.596;2022-07-18T07:10:12;22.30;66.00
61253;DHT22;47127;47.516;8.596;2022-07-18T07:12:39;22.40;65.90
61253;DHT22;47127;47.516;8.596;2022-07-18T07:15:06;22.50;66.20
61253;DHT22;47127;47.516;8.596;2022-07-18T07:17:32;22.50;65.00
61253;DHT22;47127;47.516;8.596;2022-07-18T07:19:58;22.70;65.00
61253;DHT22;47127;47.516;8.596;2022-07-18T07:22:23;22.80;63.90
61253;DHT22;47127;47.516;8.596;2022-07-18T07:24:49;22.80;63.90
61253;DHT22;47127;47.516;8.596;2022-07-18T07:27:15;22.90;63.30
61253;DHT22;47127;47.516;8.596;2022-07-18T07:29:40;22.90;62.80
61253;DHT22;47127;47.516;8.596;2022-07-18T07:32:06;23.00;63.10
61253;DHT22;47127;47.516;8.596;2022-07-18T07:34:31;23.10;62.60
61253;DHT22;47127;47.516;8.596;2022-07-18T07:36:57;23.10;61.90
61253;DHT22;47127;47.516;8.596;2022-07-18T07:39:23;23.10;62.10
61253;DHT22;47127;47.516;8.596;2022-07-18T07:41:49;23.10;62.50
61253;DHT22;47127;47.516;8.596;2022-07-18T07:44:15;23.10;61.70
61253;DHT22;47127;47.516;8.596;2022-07-18T07:46:41;23.30;61.80
61253;DHT22;47127;47.516;8.596;2022-07-18T07:49:06;23.40;61.40
61253;DHT22;47127;47.516;8.596;2022-07-18T07:51:32;23.60;60.80
61253;DHT22;47127;47.516;8.596;2022-07-18T07:53:58;23.70;60.00
61253;DHT22;47127;47.516;8.596;2022-07-18T07:56:23;23.80;59.70
61253;DHT22;47127;47.516;8.596;2022-07-18T07:58:49;24.00;59.60
61253;DHT22;47127;47.516;8.596;2022-07-18T08:01:16;24.00;59.40
61253;DHT22;47127;47.516;8.596;2022-07-18T08:03:45;24.10;59.20
61253;DHT22;47127;47.516;8.596;2022-07-18T08:06:13;24.20;59.20
61253;DHT22;47127;47.516;8.596;2022-07-18T08:08:39;24.40;59.30
61253;DHT22;47127;47.516;8.596;2022-07-18T08:11:05;24.40;58.60
61253;DHT22;47127;47.516;8.596;2022-07-18T08:13:30;24.50;58.70
61253;DHT22;47127;47.516;8.596;2022-07-18T08:15:56;24.50;58.60
61253;DHT22;47127;47.516;8.596;2022-07-18T08:18:21;24.70;58.80
61253;DHT22;47127;47.516;8.596;2022-07-18T08:20:47;24.80;58.20
61253;DHT22;47127;47.516;8.596;2022-07-18T08:23:13;24.90;58.20
61253;DHT22;47127;47.516;8.596;2022-07-18T08:25:40;24.90;57.80
61253;DHT22;47127;47.516;8.596;2022-07-18T08:28:07;25.00;57.90
61253;DHT22;47127;47.516;8.596;2022-07-18T08:30:33;25.20;57.60
61253;DHT22;47127;47.516;8.596;2022-07-18T08:33:00;25.20;57.80
61253;DHT22;47127;47.516;8.596;2022-07-18T08:35:29;25.00;56.90
61253;DHT22;47127;47.516;8.596;2022-07-18T08:37:55;25.20;56.90
61253;DHT22;47127;47.516;8.596;2022-07-18T08:40:21;25.30;56.90
61253;DHT22;47127;47.516;8.596;2022-07-18T08:42:50;25.40;56.90
61253;DHT22;47127;47.516;8.596;2022-07-18T08:45:20;25.60;57.00
61253;DHT22;47127;47.516;8.596;2022-07-18T08:47:47;25.50;56.60
61253;DHT22;47127;47.516;8.596;2022-07-18T08:50:12;25.40;57.20
61253;DHT22;47127;47.516;8.596;2022-07-18T08:52:39;25.60;56.30
61253;DHT22;47127;47.516;8.596;2022-07-18T08:55:08;25.80;55.90
61253;DHT22;47127;47.516;8.596;2022-07-18T08:57:34;25.80;55.90
61253;DHT22;47127;47.516;8.596;2022-07-18T09:00:04;25.90;56.30
61253;DHT22;47127;47.516;8.596;2022-07-18T09:02:31;26.00;56.60
61253;DHT22;47127;47.516;8.596;2022-07-18T09:04:56;26.10;55.80
61253;DHT22;47127;47.516;8.596;2022-07-18T09:07:27;26.20;55.80
61253;DHT22;47127;47.516;8.596;2022-07-18T09:10:00;26.40;55.80
61253;DHT22;47127;47.516;8.596;2022-07-18T09:12:27;26.40;55.40
61253;DHT22;47127;47.516;8.596;2022-07-18T09:14:54;26.50;55.60
61253;DHT22;47127;47.516;8.596;2022-07-18T09:17:25;26.50;55.50
61253;DHT22;47127;47.516;8.596;2022-07-18T09:20:10;26.50;55.30
61253;DHT22;47127;47.516;8.596;2022-07-18T09:22:38;26.50;54.90
61253;DHT22;47127;47.516;8.596;2022-07-18T09:25:07;26.50;55.40
61253;DHT22;47127;47.516;8.596;2022-07-18T09:27:37;26.60;55.10
61253;DHT22;47127;47.516;8.596;2022-07-18T09:33:06;26.90;54.90
61253;DHT22;47127;47.516;8.596;2022-07-18T09:38:17;27.10;54.70
61253;DHT22;47127;47.516;8.596;2022-07-18T09:40:48;27.10;54.90
61253;DHT22;47127;47.516;8.596;2022-07-18T09:43:16;27.30;54.10
61253;DHT22;47127;47.516;8.596;2022-07-18T09:45:48;27.40;53.50
61253;DHT22;47127;47.516;8.596;2022-07-18T09:48:17;27.60;53.30
61253;DHT22;47127;47.516;8.596;2022-07-18T09:52:40;27.60;52.20
61253;DHT22;47127;47.516;8.596;2022-07-18T09:55:07;27.60;52.80
61253;DHT22;47127;47.516;8.596;2022-07-18T09:57:32;27.80;52.70
61253;DHT22;47127;47.516;8.596;2022-07-18T09:59:59;27.80;52.20
61253;DHT22;47127;47.516;8.596;2022-07-18T10:02:25;28.00;52.10
61253;DHT22;47127;47.516;8.596;2022-07-18T10:04:51;28.10;51.70
61253;DHT22;47127;47.516;8.596;2022-07-18T10:07:17;28.30;51.10
61253;DHT22;47127;47.516;8.596;2022-07-18T10:09:43;28.40;50.10
61253;DHT22;47127;47.516;8.596;2022-07-18T10:12:10;28.50;50.20
61253;DHT22;47127;47.516;8.596;2022-07-18T10:14:35;28.60;48.20
61253;DHT22;47127;47.516;8.596;2022-07-18T10:17:02;28.70;48.20
61253;DHT22;47127;47.516;8.596;2022-07-18T10:19:28;28.80;47.90
61253;DHT22;47127;47.516;8.596;2022-07-18T10:21:54;28.70;48.00
61253;DHT22;47127;47.516;8.596;2022-07-18T10:24:23;28.50;48.70
61253;DHT22;47127;47.516;8.596;2022-07-18T10:27:11;28.80;49.90
61253;DHT22;47127;47.516;8.596;2022-07-18T10:29:37;28.90;49.50
61253;DHT22;47127;47.516;8.596;2022-07-18T10:32:04;28.90;49.40
61253;DHT22;47127;47.516;8.596;2022-07-18T10:34:36;29.10;49.10
61253;DHT22;47127;47.516;8.596;2022-07-18T10:39:35;29.30;48.30
61253;DHT22;47127;47.516;8.596;2022-07-18T10:57:39;30.00;45.80
61253;DHT22;47127;47.516;8.596;2022-07-18T11:00:15;30.10;46.00
61253;DHT22;47127;47.516;8.596;2022-07-18T11:02:46;30.30;46.40
61253;DHT22;47127;47.516;8.596;2022-07-18T11:21:36;30.70;43.70
61253;DHT22;47127;47.516;8.596;2022-07-18T11:24:07;30.70;43.50
61253;DHT22;47127;47.516;8.596;2022-07-18T11:26:34;30.80;43.60
61253;DHT22;47127;47.516;8.596;2022-07-18T11:29:05;30.90;43.30
61253;DHT22;47127;47.516;8.596;2022-07-18T11:31:32;31.10;42.70
61253;DHT22;47127;47.516;8.596;2022-07-18T11:34:07;31.10;42.80
61253;DHT22;47127;47.516;8.596;2022-07-18T11:36:33;31.20;43.20
61253;DHT22;47127;47.516;8.596;2022-07-18T11:39:00;31.50;43.50
61253;DHT22;47127;47.516;8.596;2022-07-18T11:41:27;31.50;43.60
61253;DHT22;47127;47.516;8.596;2022-07-18T11:43:54;31.50;43.80
61253;DHT22;47127;47.516;8.596;2022-07-18T11:46:25;31.80;43.90
61253;DHT22;47127;47.516;8.596;2022-07-18T11:49:00;32.20;43.60
61253;DHT22;47127;47.516;8.596;2022-07-18T11:51:34;32.20;42.90
61253;DHT22;47127;47.516;8.596;2022-07-18T11:54:00;32.20;42.80
61253;DHT22;47127;47.516;8.596;2022-07-18T11:56:25;32.30;42.80
61253;DHT22;47127;47.516;8.596;2022-07-18T11:58:51;32.40;42.80
61253;DHT22;47127;47.516;8.596;2022-07-18T12:01:18;32.40;42.70
61253;DHT22;47127;47.516;8.596;2022-07-18T12:03:49;32.60;41.20
61253;DHT22;47127;47.516;8.596;2022-07-18T12:06:23;32.70;40.90
61253;DHT22;47127;47.516;8.596;2022-07-18T12:08:56;32.70;42.10
61253;DHT22;47127;47.516;8.596;2022-07-18T12:11:38;32.90;42.40
61253;DHT22;47127;47.516;8.596;2022-07-18T12:16:47;32.70;42.50
61253;DHT22;47127;47.516;8.596;2022-07-18T12:19:14;33.00;42.40
61253;DHT22;47127;47.516;8.596;2022-07-18T12:21:41;33.00;42.30
61253;DHT22;47127;47.516;8.596;2022-07-18T12:24:31;33.00;42.70
61253;DHT22;47127;47.516;8.596;2022-07-18T12:32:26;32.80;43.00
61253;DHT22;47127;47.516;8.596;2022-07-18T12:35:00;33.00;42.80
61253;DHT22;47127;47.516;8.596;2022-07-18T12:37:28;33.00;42.50
61253;DHT22;47127;47.516;8.596;2022-07-18T12:40:05;33.10;42.20
61253;DHT22;47127;47.516;8.596;2022-07-18T12:42:35;33.20;41.90
61253;DHT22;47127;47.516;8.596;2022-07-18T12:45:00;33.00;41.80
61253;DHT22;47127;47.516;8.596;2022-07-18T12:47:26;32.90;42.10
61253;DHT22;47127;47.516;8.596;2022-07-18T12:49:52;33.10;41.70
61253;DHT22;47127;47.516;8.596;2022-07-18T12:52:18;33.20;41.50
61253;DHT22;47127;47.516;8.596;2022-07-18T12:54:45;33.50;40.80
61253;DHT22;47127;47.516;8.596;2022-07-18T12:57:11;33.80;40.70
61253;DHT22;47127;47.516;8.596;2022-07-18T12:59:37;33.60;40.70
61253;DHT22;47127;47.516;8.596;2022-07-18T13:02:03;33.80;41.20
61253;DHT22;47127;47.516;8.596;2022-07-18T13:04:29;34.00;40.50
61253;DHT22;47127;47.516;8.596;2022-07-18T13:06:54;34.10;39.60
61253;DHT22;47127;47.516;8.596;2022-07-18T13:09:20;33.70;39.90
61253;DHT22;47127;47.516;8.596;2022-07-18T13:11:47;33.60;39.80
61253;DHT22;47127;47.516;8.596;2022-07-18T13:14:14;34.00;39.90
61253;DHT22;47127;47.516;8.596;2022-07-18T13:16:41;34.10;39.70
61253;DHT22;47127;47.516;8.596;2022-07-18T13:19:08;34.50;39.20
61253;DHT22;47127;47.516;8.596;2022-07-18T13:21:34;34.60;39.30
61253;DHT22;47127;47.516;8.596;2022-07-18T13:23:59;34.30;39.50
61253;DHT22;47127;47.516;8.596;2022-07-18T13:26:25;34.50;39.00
61253;DHT22;47127;47.516;8.596;2022-07-18T13:28:51;34.60;38.40
61253;DHT22;47127;47.516;8.596;2022-07-18T13:31:16;34.60;38.10
61253;DHT22;47127;47.516;8.596;2022-07-18T13:33:42;34.50;38.60
61253;DHT22;47127;47.516;8.596;2022-07-18T13:36:07;34.50;38.50
61253;DHT22;47127;47.516;8.596;2022-07-18T13:38:33;34.50;38.40
61253;DHT22;47127;47.516;8.596;2022-07-18T13:40:58;34.60;38.20
61253;DHT22;47127;47.516;8.596;2022-07-18T13:43:24;34.90;38.40
61253;DHT22;47127;47.516;8.596;2022-07-18T13:45:50;35.00;38.10
61253;DHT22;47127;47.516;8.596;2022-07-18T13:48:15;35.10;37.90
61253;DHT22;47127;47.516;8.596;2022-07-18T13:50:41;35.10;37.60
61253;DHT22;47127;47.516;8.596;2022-07-18T13:53:06;35.10;37.80
61253;DHT22;47127;47.516;8.596;2022-07-18T13:55:33;35.00;37.40
61253;DHT22;47127;47.516;8.596;2022-07-18T13:57:58;35.00;37.90
61253;DHT22;47127;47.516;8.596;2022-07-18T14:00:24;35.00;37.90
61253;DHT22;47127;47.516;8.596;2022-07-18T14:02:49;34.90;38.20
61253;DHT22;47127;47.516;8.596;2022-07-18T14:05:15;34.70;38.20
61253;DHT22;47127;47.516;8.596;2022-07-18T14:07:44;34.90;37.90
61253;DHT22;47127;47.516;8.596;2022-07-18T14:10:11;34.50;38.10
61253;DHT22;47127;47.516;8.596;2022-07-18T14:12:37;34.60;38.60
61253;DHT22;47127;47.516;8.596;2022-07-18T14:15:03;34.80;38.40
61253;DHT22;47127;47.516;8.596;2022-07-18T14:17:29;34.70;38.20
61253;DHT22;47127;47.516;8.596;2022-07-18T14:19:56;35.10;37.60
61253;DHT22;47127;47.516;8.596;2022-07-18T14:22:21;35.00;38.20
61253;DHT22;47127;47.516;8.596;2022-07-18T14:24:47;35.00;36.90
61253;DHT22;47127;47.516;8.596;2022-07-18T14:27:12;34.70;37.40
61253;DHT22;47127;47.516;8.596;2022-07-18T14:29:38;34.50;37.80
61253;DHT22;47127;47.516;8.596;2022-07-18T14:32:04;34.50;38.30
61253;DHT22;47127;47.516;8.596;2022-07-18T14:34:29;34.70;38.20
61253;DHT22;47127;47.516;8.596;2022-07-18T14:36:55;34.80;37.90
61253;DHT22;47127;47.516;8.596;2022-07-18T14:39:20;35.00;38.00
61253;DHT22;47127;47.516;8.596;2022-07-18T14:41:46;35.30;37.50
61253;DHT22;47127;47.516;8.596;2022-07-18T14:44:12;35.40;37.00
61253;DHT22;47127;47.516;8.596;2022-07-18T14:46:37;35.40;37.10
61253;DHT22;47127;47.516;8.596;2022-07-18T14:49:03;35.60;37.00
61253;DHT22;47127;47.516;8.596;2022-07-18T14:51:28;35.90;36.80
61253;DHT22;47127;47.516;8.596;2022-07-18T14:53:54;35.90;36.40
61253;DHT22;47127;47.516;8.596;2022-07-18T14:56:19;36.10;36.30
61253;DHT22;47127;47.516;8.596;2022-07-18T14:58:45;35.80;36.20
61253;DHT22;47127;47.516;8.596;2022-07-18T15:01:11;35.70;36.90
61253;DHT22;47127;47.516;8.596;2022-07-18T15:03:36;35.20;37.10
61253;DHT22;47127;47.516;8.596;2022-07-18T15:06:02;35.70;36.80
61253;DHT22;47127;47.516;8.596;2022-07-18T15:08:28;36.10;36.70
61253;DHT22;47127;47.516;8.596;2022-07-18T15:10:53;36.10;36.70
61253;DHT22;47127;47.516;8.596;2022-07-18T15:13:19;35.60;36.70
61253;DHT22;47127;47.516;8.596;2022-07-18T15:15:44;35.80;36.90
61253;DHT22;47127;47.516;8.596;2022-07-18T15:18:13;35.80;36.70
61253;DHT22;47127;47.516;8.596;2022-07-18T15:20:38;36.10;36.60
61253;DHT22;47127;47.516;8.596;2022-07-18T15:23:04;36.50;36.50
61253;DHT22;47127;47.516;8.596;2022-07-18T15:25:29;36.70;36.00
61253;DHT22;47127;47.516;8.596;2022-07-18T15:27:55;36.20;36.10
61253;DHT22;47127;47.516;8.596;2022-07-18T15:30:20;35.90;36.30
61253;DHT22;47127;47.516;8.596;2022-07-18T15:32:46;36.10;36.20
61253;DHT22;47127;47.516;8.596;2022-07-18T15:35:11;36.40;36.30
61253;DHT22;47127;47.516;8.596;2022-07-18T15:37:37;36.70;36.00
61253;DHT22;47127;47.516;8.596;2022-07-18T15:40:03;37.00;36.10
61253;DHT22;47127;47.516;8.596;2022-07-18T15:42:30;37.00;36.20
61253;DHT22;47127;47.516;8.596;2022-07-18T15:44:55;36.80;36.30
61253;DHT22;47127;47.516;8.596;2022-07-18T15:47:21;36.60;36.70
61253;DHT22;47127;47.516;8.596;2022-07-18T15:49:46;36.10;36.50
61253;DHT22;47127;47.516;8.596;2022-07-18T15:52:12;36.20;36.80
61253;DHT22;47127;47.516;8.596;2022-07-18T15:54:38;36.10;36.90
61253;DHT22;47127;47.516;8.596;2022-07-18T15:57:04;36.30;36.50
61253;DHT22;47127;47.516;8.596;2022-07-18T15:59:30;36.30;37.00
61253;DHT22;47127;47.516;8.596;2022-07-18T16:01:55;36.10;36.90
61253;DHT22;47127;47.516;8.596;2022-07-18T16:04:21;36.30;36.70
61253;DHT22;47127;47.516;8.596;2022-07-18T16:06:47;36.00;37.20
61253;DHT22;47127;47.516;8.596;2022-07-18T16:09:13;36.40;37.20
61253;DHT22;47127;47.516;8.596;2022-07-18T16:11:39;36.60;37.10
61253;DHT22;47127;47.516;8.596;2022-07-18T16:14:07;36.60;37.00
61253;DHT22;47127;47.516;8.596;2022-07-18T16:16:33;36.40;37.10